Morden, United Kingdom

3:28 AM BST on September 05, 2015 (GMT +0100)
Motspur Park | | Change Station
CLOSE
Current Station
Personal Weather Station
Location: New Malden, SURREY
Elevation: 20 ft
Nearby Weather Stations

Elev 20 ft 51.40 °N, 0.24 °W | Updated 27 minutes ago

Clear
Clear
49.3 °F
Feels Like 49 °F
N
1.4
Wind Variable Wind from South
Gusts 2.2 mph

Today
High -- | Low -- °F
--% Chance of Precip.
Yesterday
High -- | Low -- °F
Precip. -- in
6:19 AM 7:39 PM
Waning Gibbous, 53% visible
Pressure 30.06 in
Visibility -9999.0 miles
Clouds
Windchill 49 °F
Dew Point 49 °F
Humidity 99%
Rainfall 0.00 in
Snow Depth Not available.
UV Not available.
Pollen Not available.
Air Quality Not available.
Flu Activity Not available.
METAR EGLL 050220Z 27005KT CAVOK 09/07 Q1018 TEMPO BKN014
Pressure 30.06 in
Visibility -9999.0 miles
Clouds
Windchill 49 °F
Dew Point 49 °F
Humidity 99%
Rainfall 0.00 in
Snow Depth Not available.
UV Not available.
Pollen Not available.
Air Quality Not available.
Flu Activity Not available.
METAR EGLL 050220Z 27005KT CAVOK 09/07 Q1018 TEMPO BKN014

10-Day Weather Forecast

×

Almanac

Astronomy

Sep. 05, 2015 Rise Set
Actual Time
Civil Twilight
Nautical Twilight
Astronomical Twilight
Moon
Length of Visible Light
Length of Day
Tomorrow will be .
, % of the Moon is Illuminated

Today's Extremes

Country Highs Country Lows

Community

WunderPhotos

Upload Photos

1,852,391 photos uploaded!

WunderBlogs® & News

Nearby

Air Quality

  Air Quality AQ Index Pollutant
Not available.

Snow Depth

Station Depth Elevation

Earthquake Activity

City Distance Mag. Time & Date
Minimum magnitude displayed is 2.5.

Coastal Water Temperatures

Place Temperature

Stations

Nearby Weather Stations

Station Location Temp. Windchill Dew Point Humidity Wind Precip. Elev Updated Type